sensor_id;sensor_type;location;lat;lon;timestamp;P1;durP1;ratioP1;P2;durP2;ratioP2
8407;SDS011;4241;48.452;9.216;2022-12-29T00:00:19;429.87;;;127.93;;
8407;SDS011;4241;48.452;9.216;2022-12-29T00:02:46;431.13;;;129.23;;
8407;SDS011;4241;48.452;9.216;2022-12-29T00:05:13;429.63;;;127.50;;
8407;SDS011;4241;48.452;9.216;2022-12-29T00:07:41;430.73;;;128.10;;
8407;SDS011;4241;48.452;9.216;2022-12-29T00:10:08;428.60;;;127.33;;
8407;SDS011;4241;48.452;9.216;2022-12-29T00:12:35;429.33;;;127.00;;
8407;SDS011;4241;48.452;9.216;2022-12-29T00:15:20;429.77;;;127.67;;
8407;SDS011;4241;48.452;9.216;2022-12-29T00:18:05;425.90;;;123.90;;
8407;SDS011;4241;48.452;9.216;2022-12-29T00:20:33;428.83;;;126.43;;
8407;SDS011;4241;48.452;9.216;2022-12-29T00:23:19;430.30;;;128.00;;
8407;SDS011;4241;48.452;9.216;2022-12-29T00:26:03;427.47;;;125.10;;
8407;SDS011;4241;48.452;9.216;2022-12-29T00:28:49;428.17;;;125.83;;
8407;SDS011;4241;48.452;9.216;2022-12-29T00:31:33;429.77;;;127.57;;
8407;SDS011;4241;48.452;9.216;2022-12-29T00:34:17;430.27;;;127.73;;
8407;SDS011;4241;48.452;9.216;2022-12-29T00:37:04;427.60;;;125.57;;
8407;SDS011;4241;48.452;9.216;2022-12-29T00:39:33;429.10;;;126.70;;
8407;SDS011;4241;48.452;9.216;2022-12-29T00:42:17;429.07;;;126.90;;
8407;SDS011;4241;48.452;9.216;2022-12-29T00:45:01;428.80;;;126.60;;
8407;SDS011;4241;48.452;9.216;2022-12-29T00:47:28;429.47;;;127.47;;
8407;SDS011;4241;48.452;9.216;2022-12-29T00:49:55;431.40;;;128.83;;
8407;SDS011;4241;48.452;9.216;2022-12-29T00:52:22;429.17;;;127.20;;
8407;SDS011;4241;48.452;9.216;2022-12-29T00:54:50;428.90;;;126.87;;
8407;SDS011;4241;48.452;9.216;2022-12-29T00:57:18;430.37;;;128.23;;
8407;SDS011;4241;48.452;9.216;2022-12-29T00:59:45;429.03;;;127.47;;
8407;SDS011;4241;48.452;9.216;2022-12-29T01:02:12;430.07;;;127.37;;
8407;SDS011;4241;48.452;9.216;2022-12-29T01:04:39;430.37;;;128.97;;
8407;SDS011;4241;48.452;9.216;2022-12-29T01:07:06;429.50;;;128.10;;
8407;SDS011;4241;48.452;9.216;2022-12-29T01:09:33;430.20;;;127.67;;
8407;SDS011;4241;48.452;9.216;2022-12-29T01:12:18;428.57;;;126.63;;
8407;SDS011;4241;48.452;9.216;2022-12-29T01:15:05;429.87;;;128.23;;
8407;SDS011;4241;48.452;9.216;2022-12-29T01:17:33;432.23;;;130.10;;
8407;SDS011;4241;48.452;9.216;2022-12-29T01:20:00;432.17;;;130.30;;
8407;SDS011;4241;48.452;9.216;2022-12-29T01:22:27;430.50;;;128.27;;
8407;SDS011;4241;48.452;9.216;2022-12-29T01:24:55;431.77;;;128.93;;
8407;SDS011;4241;48.452;9.216;2022-12-29T01:27:23;430.93;;;127.97;;
8407;SDS011;4241;48.452;9.216;2022-12-29T01:29:50;432.70;;;130.37;;
8407;SDS011;4241;48.452;9.216;2022-12-29T01:32:17;432.27;;;129.57;;
8407;SDS011;4241;48.452;9.216;2022-12-29T01:34:44;431.93;;;130.27;;
8407;SDS011;4241;48.452;9.216;2022-12-29T01:37:11;432.87;;;131.00;;
8407;SDS011;4241;48.452;9.216;2022-12-29T01:39:38;432.07;;;130.53;;
8407;SDS011;4241;48.452;9.216;2022-12-29T01:42:04;436.23;;;133.40;;
8407;SDS011;4241;48.452;9.216;2022-12-29T01:44:41;432.63;;;129.70;;
8407;SDS011;4241;48.452;9.216;2022-12-29T01:47:17;432.50;;;130.23;;
8407;SDS011;4241;48.452;9.216;2022-12-29T01:49:49;431.83;;;128.93;;
8407;SDS011;4241;48.452;9.216;2022-12-29T01:52:18;432.67;;;130.50;;
8407;SDS011;4241;48.452;9.216;2022-12-29T01:54:46;434.43;;;131.87;;
8407;SDS011;4241;48.452;9.216;2022-12-29T01:57:17;434.50;;;132.50;;
8407;SDS011;4241;48.452;9.216;2022-12-29T01:59:49;433.77;;;131.60;;
8407;SDS011;4241;48.452;9.216;2022-12-29T02:02:19;433.30;;;131.23;;
8407;SDS011;4241;48.452;9.216;2022-12-29T02:04:46;433.70;;;131.13;;
8407;SDS011;4241;48.452;9.216;2022-12-29T02:07:14;437.20;;;135.07;;
8407;SDS011;4241;48.452;9.216;2022-12-29T02:09:45;433.03;;;130.80;;
8407;SDS011;4241;48.452;9.216;2022-12-29T02:12:13;435.23;;;133.53;;
8407;SDS011;4241;48.452;9.216;2022-12-29T02:14:41;436.37;;;133.87;;
8407;SDS011;4241;48.452;9.216;2022-12-29T02:17:11;435.60;;;133.57;;
8407;SDS011;4241;48.452;9.216;2022-12-29T02:22:55;431.83;;;129.27;;
8407;SDS011;4241;48.452;9.216;2022-12-29T02:25:41;432.23;;;130.43;;
8407;SDS011;4241;48.452;9.216;2022-12-29T02:28:25;433.10;;;130.80;;
8407;SDS011;4241;48.452;9.216;2022-12-29T02:31:06;432.90;;;130.10;;
8407;SDS011;4241;48.452;9.216;2022-12-29T02:33:43;433.00;;;130.77;;
8407;SDS011;4241;48.452;9.216;2022-12-29T02:36:21;434.67;;;131.13;;
8407;SDS011;4241;48.452;9.216;2022-12-29T02:38:56;431.23;;;129.10;;
8407;SDS011;4241;48.452;9.216;2022-12-29T02:41:29;438.43;;;134.87;;
8407;SDS011;4241;48.452;9.216;2022-12-29T02:43:59;431.40;;;129.27;;
8407;SDS011;4241;48.452;9.216;2022-12-29T02:46:35;432.40;;;130.13;;
8407;SDS011;4241;48.452;9.216;2022-12-29T02:49:09;431.33;;;130.13;;
8407;SDS011;4241;48.452;9.216;2022-12-29T02:51:43;432.70;;;129.80;;
8407;SDS011;4241;48.452;9.216;2022-12-29T02:54:16;433.00;;;130.43;;
8407;SDS011;4241;48.452;9.216;2022-12-29T02:57:01;433.30;;;131.47;;
8407;SDS011;4241;48.452;9.216;2022-12-29T02:59:28;434.00;;;131.77;;
8407;SDS011;4241;48.452;9.216;2022-12-29T03:02:01;435.50;;;132.47;;
8407;SDS011;4241;48.452;9.216;2022-12-29T03:04:51;432.87;;;130.10;;
8407;SDS011;4241;48.452;9.216;2022-12-29T03:07:32;432.73;;;130.87;;
8407;SDS011;4241;48.452;9.216;2022-12-29T03:10:07;435.60;;;133.37;;
8407;SDS011;4241;48.452;9.216;2022-12-29T03:12:41;434.73;;;131.53;;
8407;SDS011;4241;48.452;9.216;2022-12-29T03:15:33;436.60;;;133.60;;
8407;SDS011;4241;48.452;9.216;2022-12-29T03:18:23;436.53;;;134.17;;
8407;SDS011;4241;48.452;9.216;2022-12-29T03:20:57;437.23;;;133.50;;
8407;SDS011;4241;48.452;9.216;2022-12-29T03:23:29;438.13;;;136.27;;
8407;SDS011;4241;48.452;9.216;2022-12-29T03:25:59;436.43;;;134.13;;
8407;SDS011;4241;48.452;9.216;2022-12-29T03:28:31;436.80;;;136.23;;
8407;SDS011;4241;48.452;9.216;2022-12-29T03:31:01;437.90;;;135.70;;
8407;SDS011;4241;48.452;9.216;2022-12-29T03:33:31;438.93;;;136.73;;
8407;SDS011;4241;48.452;9.216;2022-12-29T03:36:01;438.23;;;135.83;;
8407;SDS011;4241;48.452;9.216;2022-12-29T03:38:33;438.67;;;136.00;;
8407;SDS011;4241;48.452;9.216;2022-12-29T03:41:04;440.70;;;138.53;;
8407;SDS011;4241;48.452;9.216;2022-12-29T03:43:34;438.57;;;135.90;;
8407;SDS011;4241;48.452;9.216;2022-12-29T03:46:01;437.43;;;135.33;;
8407;SDS011;4241;48.452;9.216;2022-12-29T03:48:28;439.00;;;136.33;;
8407;SDS011;4241;48.452;9.216;2022-12-29T03:50:56;436.20;;;133.77;;
8407;SDS011;4241;48.452;9.216;2022-12-29T03:53:23;435.53;;;133.83;;
8407;SDS011;4241;48.452;9.216;2022-12-29T03:55:50;435.83;;;133.70;;
8407;SDS011;4241;48.452;9.216;2022-12-29T03:58:17;436.07;;;134.03;;
8407;SDS011;4241;48.452;9.216;2022-12-29T04:00:44;436.20;;;134.13;;
8407;SDS011;4241;48.452;9.216;2022-12-29T04:03:10;436.77;;;135.53;;
8407;SDS011;4241;48.452;9.216;2022-12-29T04:05:38;433.33;;;132.10;;
8407;SDS011;4241;48.452;9.216;2022-12-29T04:08:06;434.97;;;132.63;;
8407;SDS011;4241;48.452;9.216;2022-12-29T04:10:33;434.47;;;132.97;;
8407;SDS011;4241;48.452;9.216;2022-12-29T04:13:00;436.27;;;134.10;;
8407;SDS011;4241;48.452;9.216;2022-12-29T04:15:27;434.90;;;133.20;;
8407;SDS011;4241;48.452;9.216;2022-12-29T04:17:54;433.53;;;132.37;;
8407;SDS011;4241;48.452;9.216;2022-12-29T04:20:21;434.00;;;132.37;;
8407;SDS011;4241;48.452;9.216;2022-12-29T04:23:07;432.90;;;131.43;;
8407;SDS011;4241;48.452;9.216;2022-12-29T04:25:34;433.93;;;131.87;;
8407;SDS011;4241;48.452;9.216;2022-12-29T04:28:01;435.13;;;133.03;;
8407;SDS011;4241;48.452;9.216;2022-12-29T04:30:27;434.90;;;132.87;;
8407;SDS011;4241;48.452;9.216;2022-12-29T04:32:54;433.63;;;131.73;;
8407;SDS011;4241;48.452;9.216;2022-12-29T04:35:21;435.70;;;133.57;;
8407;SDS011;4241;48.452;9.216;2022-12-29T04:37:48;435.57;;;133.27;;
8407;SDS011;4241;48.452;9.216;2022-12-29T04:40:17;435.30;;;132.87;;
8407;SDS011;4241;48.452;9.216;2022-12-29T04:42:44;434.40;;;132.50;;
8407;SDS011;4241;48.452;9.216;2022-12-29T04:45:11;434.87;;;132.40;;
8407;SDS011;4241;48.452;9.216;2022-12-29T04:47:37;434.47;;;132.27;;
8407;SDS011;4241;48.452;9.216;2022-12-29T04:50:07;437.67;;;135.43;;
8407;SDS011;4241;48.452;9.216;2022-12-29T04:52:35;435.60;;;134.07;;
8407;SDS011;4241;48.452;9.216;2022-12-29T04:55:02;435.90;;;133.90;;
8407;SDS011;4241;48.452;9.216;2022-12-29T04:57:31;434.63;;;132.40;;
8407;SDS011;4241;48.452;9.216;2022-12-29T04:59:58;435.60;;;133.47;;
8407;SDS011;4241;48.452;9.216;2022-12-29T05:02:25;435.83;;;133.27;;
8407;SDS011;4241;48.452;9.216;2022-12-29T05:04:51;432.57;;;130.80;;
8407;SDS011;4241;48.452;9.216;2022-12-29T05:07:18;434.37;;;131.60;;
8407;SDS011;4241;48.452;9.216;2022-12-29T05:09:45;437.53;;;136.30;;
8407;SDS011;4241;48.452;9.216;2022-12-29T05:12:12;433.43;;;130.37;;
8407;SDS011;4241;48.452;9.216;2022-12-29T05:14:40;432.53;;;130.10;;
8407;SDS011;4241;48.452;9.216;2022-12-29T05:17:07;432.90;;;130.27;;
8407;SDS011;4241;48.452;9.216;2022-12-29T05:19:34;433.40;;;131.07;;
8407;SDS011;4241;48.452;9.216;2022-12-29T05:22:03;433.27;;;130.60;;
8407;SDS011;4241;48.452;9.216;2022-12-29T05:24:30;434.10;;;131.80;;
8407;SDS011;4241;48.452;9.216;2022-12-29T05:26:57;432.13;;;129.87;;
8407;SDS011;4241;48.452;9.216;2022-12-29T05:29:23;434.13;;;131.73;;
8407;SDS011;4241;48.452;9.216;2022-12-29T05:31:51;443.80;;;140.47;;
8407;SDS011;4241;48.452;9.216;2022-12-29T05:34:18;432.00;;;129.73;;
8407;SDS011;4241;48.452;9.216;2022-12-29T05:36:45;434.57;;;131.90;;
8407;SDS011;4241;48.452;9.216;2022-12-29T05:39:12;433.87;;;131.57;;
8407;SDS011;4241;48.452;9.216;2022-12-29T05:41:39;435.47;;;134.27;;
8407;SDS011;4241;48.452;9.216;2022-12-29T05:44:06;434.43;;;131.93;;
8407;SDS011;4241;48.452;9.216;2022-12-29T05:46:33;433.27;;;131.10;;
8407;SDS011;4241;48.452;9.216;2022-12-29T05:49:01;439.20;;;136.83;;
8407;SDS011;4241;48.452;9.216;2022-12-29T05:51:28;440.20;;;136.20;;
8407;SDS011;4241;48.452;9.216;2022-12-29T05:53:55;432.57;;;130.73;;
8407;SDS011;4241;48.452;9.216;2022-12-29T05:56:22;433.17;;;131.57;;
8407;SDS011;4241;48.452;9.216;2022-12-29T05:58:49;434.07;;;132.50;;
8407;SDS011;4241;48.452;9.216;2022-12-29T06:01:16;438.67;;;137.00;;
8407;SDS011;4241;48.452;9.216;2022-12-29T06:03:42;435.73;;;134.23;;
8407;SDS011;4241;48.452;9.216;2022-12-29T06:06:11;437.87;;;136.10;;
8407;SDS011;4241;48.452;9.216;2022-12-29T06:08:37;435.10;;;133.70;;
8407;SDS011;4241;48.452;9.216;2022-12-29T06:11:04;435.07;;;133.23;;
8407;SDS011;4241;48.452;9.216;2022-12-29T06:13:31;437.33;;;135.07;;
8407;SDS011;4241;48.452;9.216;2022-12-29T06:16:00;436.00;;;134.40;;
8407;SDS011;4241;48.452;9.216;2022-12-29T06:18:27;434.83;;;132.37;;
8407;SDS011;4241;48.452;9.216;2022-12-29T06:20:58;435.37;;;133.37;;
8407;SDS011;4241;48.452;9.216;2022-12-29T06:23:27;437.20;;;134.40;;
8407;SDS011;4241;48.452;9.216;2022-12-29T06:25:54;435.23;;;133.00;;
8407;SDS011;4241;48.452;9.216;2022-12-29T06:28:21;435.77;;;135.63;;
8407;SDS011;4241;48.452;9.216;2022-12-29T06:30:48;433.40;;;131.70;;
8407;SDS011;4241;48.452;9.216;2022-12-29T06:33:15;434.50;;;132.93;;
8407;SDS011;4241;48.452;9.216;2022-12-29T06:35:42;434.40;;;131.67;;
8407;SDS011;4241;48.452;9.216;2022-12-29T06:38:10;437.70;;;134.53;;
8407;SDS011;4241;48.452;9.216;2022-12-29T06:40:39;433.27;;;131.87;;
8407;SDS011;4241;48.452;9.216;2022-12-29T06:43:06;433.30;;;131.47;;
8407;SDS011;4241;48.452;9.216;2022-12-29T06:45:33;433.87;;;132.43;;
8407;SDS011;4241;48.452;9.216;2022-12-29T06:48:00;435.53;;;134.33;;
8407;SDS011;4241;48.452;9.216;2022-12-29T06:50:26;433.63;;;130.90;;
8407;SDS011;4241;48.452;9.216;2022-12-29T06:52:53;432.83;;;131.03;;
8407;SDS011;4241;48.452;9.216;2022-12-29T06:55:20;432.23;;;130.40;;
8407;SDS011;4241;48.452;9.216;2022-12-29T06:57:48;432.60;;;130.93;;
8407;SDS011;4241;48.452;9.216;2022-12-29T07:00:15;432.13;;;130.73;;
8407;SDS011;4241;48.452;9.216;2022-12-29T07:02:43;431.73;;;130.33;;
8407;SDS011;4241;48.452;9.216;2022-12-29T07:05:09;431.43;;;130.57;;
8407;SDS011;4241;48.452;9.216;2022-12-29T07:07:38;431.50;;;129.90;;
8407;SDS011;4241;48.452;9.216;2022-12-29T07:10:05;434.60;;;132.40;;
8407;SDS011;4241;48.452;9.216;2022-12-29T07:12:32;434.07;;;132.10;;
8407;SDS011;4241;48.452;9.216;2022-12-29T07:15:00;431.67;;;129.87;;
8407;SDS011;4241;48.452;9.216;2022-12-29T07:17:28;434.50;;;132.90;;
8407;SDS011;4241;48.452;9.216;2022-12-29T07:19:55;434.17;;;132.80;;
8407;SDS011;4241;48.452;9.216;2022-12-29T07:22:22;433.10;;;131.33;;
8407;SDS011;4241;48.452;9.216;2022-12-29T07:24:49;431.60;;;130.40;;
8407;SDS011;4241;48.452;9.216;2022-12-29T07:27:16;432.53;;;131.73;;
8407;SDS011;4241;48.452;9.216;2022-12-29T07:29:43;432.00;;;130.77;;
8407;SDS011;4241;48.452;9.216;2022-12-29T07:32:11;434.80;;;132.93;;
8407;SDS011;4241;48.452;9.216;2022-12-29T07:34:38;431.27;;;130.73;;
8407;SDS011;4241;48.452;9.216;2022-12-29T07:37:05;431.37;;;129.80;;
8407;SDS011;4241;48.452;9.216;2022-12-29T07:39:32;434.07;;;130.50;;
8407;SDS011;4241;48.452;9.216;2022-12-29T07:41:59;431.80;;;130.80;;
8407;SDS011;4241;48.452;9.216;2022-12-29T07:44:26;432.60;;;130.73;;
8407;SDS011;4241;48.452;9.216;2022-12-29T07:46:53;431.80;;;129.83;;
8407;SDS011;4241;48.452;9.216;2022-12-29T07:49:21;433.10;;;131.83;;
8407;SDS011;4241;48.452;9.216;2022-12-29T07:51:48;432.50;;;130.80;;
8407;SDS011;4241;48.452;9.216;2022-12-29T07:54:15;433.63;;;131.93;;
8407;SDS011;4241;48.452;9.216;2022-12-29T07:56:43;433.13;;;130.93;;
8407;SDS011;4241;48.452;9.216;2022-12-29T07:59:10;432.77;;;131.67;;
8407;SDS011;4241;48.452;9.216;2022-12-29T08:01:38;431.77;;;129.77;;
8407;SDS011;4241;48.452;9.216;2022-12-29T08:04:05;431.63;;;129.77;;
8407;SDS011;4241;48.452;9.216;2022-12-29T08:06:33;432.43;;;130.57;;
8407;SDS011;4241;48.452;9.216;2022-12-29T08:09:00;433.23;;;132.07;;
8407;SDS011;4241;48.452;9.216;2022-12-29T08:11:27;438.10;;;136.23;;
8407;SDS011;4241;48.452;9.216;2022-12-29T08:13:54;433.40;;;131.27;;
8407;SDS011;4241;48.452;9.216;2022-12-29T08:16:21;434.67;;;132.73;;
8407;SDS011;4241;48.452;9.216;2022-12-29T08:18:48;435.07;;;131.63;;
8407;SDS011;4241;48.452;9.216;2022-12-29T08:21:15;441.40;;;138.47;;
8407;SDS011;4241;48.452;9.216;2022-12-29T08:23:44;436.60;;;134.43;;
8407;SDS011;4241;48.452;9.216;2022-12-29T08:26:11;437.03;;;134.60;;
8407;SDS011;4241;48.452;9.216;2022-12-29T08:28:38;441.97;;;139.90;;
8407;SDS011;4241;48.452;9.216;2022-12-29T08:31:05;437.47;;;135.87;;
8407;SDS011;4241;48.452;9.216;2022-12-29T08:33:31;437.07;;;134.47;;
8407;SDS011;4241;48.452;9.216;2022-12-29T08:35:59;439.40;;;137.63;;
8407;SDS011;4241;48.452;9.216;2022-12-29T08:38:26;437.40;;;135.20;;
8407;SDS011;4241;48.452;9.216;2022-12-29T08:40:55;436.23;;;134.40;;
8407;SDS011;4241;48.452;9.216;2022-12-29T08:43:22;437.50;;;135.03;;
8407;SDS011;4241;48.452;9.216;2022-12-29T08:45:49;437.47;;;136.40;;
8407;SDS011;4241;48.452;9.216;2022-12-29T08:48:16;437.33;;;135.23;;
8407;SDS011;4241;48.452;9.216;2022-12-29T08:50:47;438.00;;;136.40;;
8407;SDS011;4241;48.452;9.216;2022-12-29T08:53:14;436.13;;;135.20;;
8407;SDS011;4241;48.452;9.216;2022-12-29T08:55:44;437.30;;;135.97;;
8407;SDS011;4241;48.452;9.216;2022-12-29T08:58:12;438.13;;;137.57;;
8407;SDS011;4241;48.452;9.216;2022-12-29T09:00:39;436.77;;;135.57;;
8407;SDS011;4241;48.452;9.216;2022-12-29T09:03:06;439.73;;;137.50;;
8407;SDS011;4241;48.452;9.216;2022-12-29T09:05:33;438.50;;;137.43;;
8407;SDS011;4241;48.452;9.216;2022-12-29T09:08:00;437.07;;;136.40;;
8407;SDS011;4241;48.452;9.216;2022-12-29T09:10:27;436.43;;;135.23;;
8407;SDS011;4241;48.452;9.216;2022-12-29T09:12:53;437.47;;;136.30;;
8407;SDS011;4241;48.452;9.216;2022-12-29T09:15:22;439.70;;;137.63;;
8407;SDS011;4241;48.452;9.216;2022-12-29T09:17:49;436.80;;;135.43;;
8407;SDS011;4241;48.452;9.216;2022-12-29T09:20:16;438.80;;;136.67;;
8407;SDS011;4241;48.452;9.216;2022-12-29T09:22:45;437.67;;;136.17;;
8407;SDS011;4241;48.452;9.216;2022-12-29T09:25:12;436.33;;;135.17;;
8407;SDS011;4241;48.452;9.216;2022-12-29T09:27:40;435.90;;;135.53;;
8407;SDS011;4241;48.452;9.216;2022-12-29T09:30:08;435.23;;;135.33;;
8407;SDS011;4241;48.452;9.216;2022-12-29T09:32:38;436.13;;;135.17;;
8407;SDS011;4241;48.452;9.216;2022-12-29T09:35:04;435.00;;;133.93;;
8407;SDS011;4241;48.452;9.216;2022-12-29T09:37:32;433.77;;;133.77;;
8407;SDS011;4241;48.452;9.216;2022-12-29T09:39:59;433.20;;;136.30;;
8407;SDS011;4241;48.452;9.216;2022-12-29T09:42:27;436.93;;;135.33;;
8407;SDS011;4241;48.452;9.216;2022-12-29T09:45:04;436.80;;;135.10;;
8407;SDS011;4241;48.452;9.216;2022-12-29T09:47:39;432.67;;;131.70;;
8407;SDS011;4241;48.452;9.216;2022-12-29T09:50:09;434.60;;;132.97;;
8407;SDS011;4241;48.452;9.216;2022-12-29T09:52:42;437.03;;;135.07;;
8407;SDS011;4241;48.452;9.216;2022-12-29T09:55:14;436.30;;;134.77;;
8407;SDS011;4241;48.452;9.216;2022-12-29T09:57:48;436.00;;;133.67;;
8407;SDS011;4241;48.452;9.216;2022-12-29T10:00:21;437.43;;;135.93;;
8407;SDS011;4241;48.452;9.216;2022-12-29T10:02:51;437.17;;;134.90;;
8407;SDS011;4241;48.452;9.216;2022-12-29T10:05:30;438.40;;;135.37;;
8407;SDS011;4241;48.452;9.216;2022-12-29T10:08:05;437.40;;;135.37;;
8407;SDS011;4241;48.452;9.216;2022-12-29T10:10:43;436.40;;;134.97;;
8407;SDS011;4241;48.452;9.216;2022-12-29T10:13:18;435.20;;;133.53;;
8407;SDS011;4241;48.452;9.216;2022-12-29T10:15:55;435.97;;;133.73;;
8407;SDS011;4241;48.452;9.216;2022-12-29T10:21:40;437.40;;;135.70;;
8407;SDS011;4241;48.452;9.216;2022-12-29T10:24:16;438.47;;;136.97;;
8407;SDS011;4241;48.452;9.216;2022-12-29T10:26:45;436.73;;;135.43;;
8407;SDS011;4241;48.452;9.216;2022-12-29T10:29:15;436.47;;;135.60;;
8407;SDS011;4241;48.452;9.216;2022-12-29T10:31:45;452.37;;;150.83;;
8407;SDS011;4241;48.452;9.216;2022-12-29T10:34:18;435.60;;;134.37;;
8407;SDS011;4241;48.452;9.216;2022-12-29T10:36:48;436.40;;;135.87;;
8407;SDS011;4241;48.452;9.216;2022-12-29T10:39:19;435.50;;;134.97;;
8407;SDS011;4241;48.452;9.216;2022-12-29T10:41:50;436.83;;;134.77;;
8407;SDS011;4241;48.452;9.216;2022-12-29T10:44:21;437.60;;;137.27;;
8407;SDS011;4241;48.452;9.216;2022-12-29T10:46:55;437.17;;;136.60;;
8407;SDS011;4241;48.452;9.216;2022-12-29T10:49:26;438.10;;;136.57;;
8407;SDS011;4241;48.452;9.216;2022-12-29T10:51:57;442.73;;;141.80;;
8407;SDS011;4241;48.452;9.216;2022-12-29T10:54:26;438.67;;;137.87;;
8407;SDS011;4241;48.452;9.216;2022-12-29T10:56:59;437.97;;;137.27;;
8407;SDS011;4241;48.452;9.216;2022-12-29T10:59:29;438.43;;;137.77;;
8407;SDS011;4241;48.452;9.216;2022-12-29T11:01:58;437.97;;;138.40;;
8407;SDS011;4241;48.452;9.216;2022-12-29T11:04:42;437.27;;;136.43;;
8407;SDS011;4241;48.452;9.216;2022-12-29T11:07:16;446.93;;;143.80;;
8407;SDS011;4241;48.452;9.216;2022-12-29T11:09:44;438.63;;;138.80;;
8407;SDS011;4241;48.452;9.216;2022-12-29T11:12:18;439.27;;;139.00;;
8407;SDS011;4241;48.452;9.216;2022-12-29T11:14:47;438.47;;;137.37;;
8407;SDS011;4241;48.452;9.216;2022-12-29T11:17:42;437.60;;;137.10;;
8407;SDS011;4241;48.452;9.216;2022-12-29T11:20:24;438.80;;;138.33;;
8407;SDS011;4241;48.452;9.216;2022-12-29T11:22:54;439.40;;;138.83;;
8407;SDS011;4241;48.452;9.216;2022-12-29T11:25:21;441.43;;;140.63;;
8407;SDS011;4241;48.452;9.216;2022-12-29T11:27:54;439.43;;;138.27;;
8407;SDS011;4241;48.452;9.216;2022-12-29T11:30:23;439.40;;;138.93;;
8407;SDS011;4241;48.452;9.216;2022-12-29T11:32:54;442.13;;;141.43;;
8407;SDS011;4241;48.452;9.216;2022-12-29T11:35:34;440.20;;;140.07;;
8407;SDS011;4241;48.452;9.216;2022-12-29T11:38:02;443.80;;;141.67;;
8407;SDS011;4241;48.452;9.216;2022-12-29T11:40:29;439.57;;;139.43;;
8407;SDS011;4241;48.452;9.216;2022-12-29T11:42:59;442.30;;;140.37;;
8407;SDS011;4241;48.452;9.216;2022-12-29T11:45:28;440.57;;;139.47;;
8407;SDS011;4241;48.452;9.216;2022-12-29T11:47:59;439.90;;;138.53;;
8407;SDS011;4241;48.452;9.216;2022-12-29T11:50:36;438.63;;;137.87;;
8407;SDS011;4241;48.452;9.216;2022-12-29T11:53:06;442.97;;;141.77;;
8407;SDS011;4241;48.452;9.216;2022-12-29T11:55:49;440.33;;;138.23;;
8407;SDS011;4241;48.452;9.216;2022-12-29T11:58:17;443.83;;;141.67;;
8407;SDS011;4241;48.452;9.216;2022-12-29T12:00:44;440.70;;;138.23;;
8407;SDS011;4241;48.452;9.216;2022-12-29T12:03:13;440.57;;;139.13;;
8407;SDS011;4241;48.452;9.216;2022-12-29T12:05:45;440.13;;;138.73;;
8407;SDS011;4241;48.452;9.216;2022-12-29T12:08:19;439.67;;;138.37;;
8407;SDS011;4241;48.452;9.216;2022-12-29T12:10:55;442.17;;;140.67;;
8407;SDS011;4241;48.452;9.216;2022-12-29T12:13:30;440.73;;;139.10;;
8407;SDS011;4241;48.452;9.216;2022-12-29T12:16:02;440.57;;;138.40;;
8407;SDS011;4241;48.452;9.216;2022-12-29T12:18:37;439.13;;;136.60;;
8407;SDS011;4241;48.452;9.216;2022-12-29T12:21:15;440.50;;;138.50;;
8407;SDS011;4241;48.452;9.216;2022-12-29T12:23:53;438.40;;;136.23;;
8407;SDS011;4241;48.452;9.216;2022-12-29T12:26:34;436.67;;;135.93;;
8407;SDS011;4241;48.452;9.216;2022-12-29T12:29:08;449.67;;;148.53;;
8407;SDS011;4241;48.452;9.216;2022-12-29T12:31:41;439.13;;;137.53;;
8407;SDS011;4241;48.452;9.216;2022-12-29T12:34:15;437.10;;;136.20;;
8407;SDS011;4241;48.452;9.216;2022-12-29T12:36:52;438.13;;;137.73;;
8407;SDS011;4241;48.452;9.216;2022-12-29T12:39:41;437.47;;;135.80;;
8407;SDS011;4241;48.452;9.216;2022-12-29T12:42:22;438.80;;;138.37;;
8407;SDS011;4241;48.452;9.216;2022-12-29T12:45:03;438.30;;;135.65;;
8407;SDS011;4241;48.452;9.216;2022-12-29T12:47:52;436.83;;;136.30;;
8407;SDS011;4241;48.452;9.216;2022-12-29T12:50:31;436.97;;;136.67;;
8407;SDS011;4241;48.452;9.216;2022-12-29T12:53:21;438.37;;;137.23;;
8407;SDS011;4241;48.452;9.216;2022-12-29T12:55:58;439.57;;;137.27;;
8407;SDS011;4241;48.452;9.216;2022-12-29T13:01:11;438.70;;;137.40;;
8407;SDS011;4241;48.452;9.216;2022-12-29T13:04:04;437.23;;;135.10;;
8407;SDS011;4241;48.452;9.216;2022-12-29T13:06:52;438.23;;;135.77;;
8407;SDS011;4241;48.452;9.216;2022-12-29T13:09:28;437.20;;;135.77;;
8407;SDS011;4241;48.452;9.216;2022-12-29T13:12:13;434.87;;;132.60;;
8407;SDS011;4241;48.452;9.216;2022-12-29T13:14:50;436.07;;;135.07;;
8407;SDS011;4241;48.452;9.216;2022-12-29T13:17:26;436.67;;;134.20;;
8407;SDS011;4241;48.452;9.216;2022-12-29T13:20:01;435.27;;;133.60;;
8407;SDS011;4241;48.452;9.216;2022-12-29T13:22:36;436.83;;;134.47;;
8407;SDS011;4241;48.452;9.216;2022-12-29T13:25:17;436.00;;;134.47;;
8407;SDS011;4241;48.452;9.216;2022-12-29T13:27:54;435.90;;;135.37;;
8407;SDS011;4241;48.452;9.216;2022-12-29T13:30:28;436.77;;;134.50;;
8407;SDS011;4241;48.452;9.216;2022-12-29T13:33:01;440.97;;;138.60;;
8407;SDS011;4241;48.452;9.216;2022-12-29T13:35:44;436.07;;;134.00;;
8407;SDS011;4241;48.452;9.216;2022-12-29T13:38:29;436.37;;;135.97;;
8407;SDS011;4241;48.452;9.216;2022-12-29T13:41:01;439.23;;;137.53;;
8407;SDS011;4241;48.452;9.216;2022-12-29T13:43:31;435.67;;;134.90;;
8407;SDS011;4241;48.452;9.216;2022-12-29T13:46:01;435.30;;;134.07;;
8407;SDS011;4241;48.452;9.216;2022-12-29T13:48:37;436.53;;;135.23;;
8407;SDS011;4241;48.452;9.216;2022-12-29T13:51:07;437.97;;;136.27;;
8407;SDS011;4241;48.452;9.216;2022-12-29T13:53:37;436.77;;;135.33;;
8407;SDS011;4241;48.452;9.216;2022-12-29T13:56:20;438.10;;;136.60;;
8407;SDS011;4241;48.452;9.216;2022-12-29T13:58:57;436.97;;;135.20;;
8407;SDS011;4241;48.452;9.216;2022-12-29T14:01:30;443.27;;;141.57;;
8407;SDS011;4241;48.452;9.216;2022-12-29T14:04:02;436.40;;;135.00;;
8407;SDS011;4241;48.452;9.216;2022-12-29T14:06:35;438.90;;;136.87;;
8407;SDS011;4241;48.452;9.216;2022-12-29T14:09:24;438.07;;;137.10;;
8407;SDS011;4241;48.452;9.216;2022-12-29T14:12:19;440.33;;;138.10;;
8407;SDS011;4241;48.452;9.216;2022-12-29T14:15:02;439.93;;;138.00;;
8407;SDS011;4241;48.452;9.216;2022-12-29T14:17:31;438.27;;;136.93;;
8407;SDS011;4241;48.452;9.216;2022-12-29T14:19:58;436.70;;;135.17;;
8407;SDS011;4241;48.452;9.216;2022-12-29T14:22:26;440.57;;;139.50;;
8407;SDS011;4241;48.452;9.216;2022-12-29T14:24:54;439.23;;;137.77;;
8407;SDS011;4241;48.452;9.216;2022-12-29T14:33:13;441.90;;;139.70;;
8407;SDS011;4241;48.452;9.216;2022-12-29T14:35:42;480.33;;;178.13;;
8407;SDS011;4241;48.452;9.216;2022-12-29T14:38:18;439.47;;;138.07;;
8407;SDS011;4241;48.452;9.216;2022-12-29T14:40:48;439.13;;;138.10;;
8407;SDS011;4241;48.452;9.216;2022-12-29T14:43:26;439.73;;;138.63;;
8407;SDS011;4241;48.452;9.216;2022-12-29T14:45:57;440.50;;;140.00;;
8407;SDS011;4241;48.452;9.216;2022-12-29T14:48:30;437.70;;;136.50;;
8407;SDS011;4241;48.452;9.216;2022-12-29T14:51:02;441.30;;;139.00;;
8407;SDS011;4241;48.452;9.216;2022-12-29T14:53:44;440.10;;;136.93;;
8407;SDS011;4241;48.452;9.216;2022-12-29T14:56:13;438.50;;;136.43;;
8407;SDS011;4241;48.452;9.216;2022-12-29T14:58:45;437.73;;;136.70;;